Decoded Metar for LFKF (FIGARI in CORSE ISL.) (IATA:FSC) | Meteo·Mobile Aviation Weather
aviador You're here:

LFKF Decoded Metar

FIGARI in CORSE ISL.
Report Time2020-02-23 11:00:00
UTC Time2020-02-23 11:14:17
Flight Rules mvfr MVFR
Wind260° at 18 kt
W.Decomp.*RWY 23: 15.7 kt HW 8.7 kt RCW
Visibility9999 m
Phenomena:N/A
Clouds:Overcast 020 Hf
Expected CloudBase > 2,000 ft AGL from Temp-Dew spread
Ceiling2,000 ft
Temp15°C (ISA 0)
Dew Point10°C (72% RH)
AAT8.6°C
QNH1031 hPa
Density Alt-348 ft
Elevation75 ft
Report Wrong Elevation
Raw Report
LFKF 231100Z AUTO 26018KT 9999 OVC020 15/10 Q1031 TEMPO
26020G30KT=

Extra information for LFKF:More info

Metar Taf Metar & Taf Last 4 Metars F.Rules Stats Wind Profile Meteogram Temp Stats Airport Information Weather charts Add Link Nearby VenuesMetar ALERT Operation Metar Decoded Social comments